Aviation Digital Data Service (ADDS)

Output produced by METARs form (0659 UTC 03 September 2014)
found at http://aviationweather.gov/adds/metars/
 
KCON 030523Z 0306/0406 20005KT P6SM BKN100 
     FM030800 30006KT P6SM SCT100 
     FM031400 31012G18KT P6SM FEW250 
     FM032200 30006KT P6SM SKC